createdAt,value
2023-03-06T00:37:12.898Z,505.00
2023-03-06T00:38:12.900Z,504.00
2023-03-06T00:39:12.939Z,503.00
2023-03-06T00:40:12.986Z,504.00
2023-03-06T00:41:12.988Z,503.00
2023-03-06T00:42:13.046Z,503.00
2023-03-06T01:00:13.565Z,509.00
2023-03-06T01:01:13.606Z,509.00
2023-03-06T01:02:13.621Z,504.00
2023-03-06T01:03:13.609Z,506.00
2023-03-06T01:04:13.658Z,503.00
2023-03-06T01:05:13.666Z,504.00
2023-03-06T01:06:13.694Z,505.00
2023-03-06T01:07:13.734Z,505.00
2023-03-06T01:08:13.717Z,503.00
2023-03-06T01:09:13.761Z,506.00
2023-03-06T01:10:13.775Z,503.00
2023-03-06T01:11:13.782Z,509.00
2023-03-06T01:12:13.791Z,506.00
2023-03-06T01:13:13.797Z,502.00
2023-03-06T01:14:13.796Z,508.00
2023-03-06T01:15:13.809Z,504.00
2023-03-06T01:16:13.851Z,510.00
2023-03-06T01:17:14.354Z,505.00
2023-03-06T01:18:13.771Z,504.00
2023-03-06T01:19:13.780Z,505.00
2023-03-06T01:20:13.781Z,501.00
2023-03-06T01:21:13.804Z,507.00
2023-03-06T01:22:13.806Z,501.00
2023-03-06T01:23:13.818Z,508.00
2023-03-06T01:24:13.801Z,504.00
2023-03-06T01:25:13.824Z,504.00
2023-03-06T01:26:13.811Z,504.00
2023-03-06T01:27:13.835Z,511.00
2023-03-06T01:28:13.847Z,506.00
2023-03-06T01:29:13.905Z,508.00
2023-03-06T01:30:13.934Z,507.00
2023-03-06T01:32:14.035Z,511.00
2023-03-06T01:33:14.028Z,509.00
2023-03-06T01:35:14.090Z,508.00
2023-03-06T01:40:14.262Z,508.00
2023-03-06T01:41:14.341Z,509.00
2023-03-06T01:42:14.339Z,509.00
2023-03-06T01:43:14.450Z,506.00
2023-03-06T01:44:14.382Z,514.00
2023-03-06T01:45:14.574Z,505.00
2023-03-06T01:46:14.427Z,510.00
2023-03-06T01:47:14.443Z,506.00
2023-03-06T01:48:14.479Z,508.00
2023-03-06T01:49:14.490Z,507.00
2023-03-06T01:50:14.553Z,511.00
2023-03-06T01:51:14.599Z,511.00
2023-03-06T01:52:14.684Z,506.00
2023-03-06T01:53:14.658Z,505.00
2023-03-06T01:54:14.691Z,504.00
2023-03-06T01:55:14.713Z,505.00
2023-03-06T01:56:14.718Z,507.00
2023-03-06T01:57:14.778Z,512.00
2023-03-06T01:58:14.813Z,510.00
2023-03-06T01:59:14.847Z,511.00
2023-03-06T02:00:14.899Z,508.00
2023-03-06T02:01:15.049Z,506.00
2023-03-06T02:02:14.986Z,510.00
2023-03-06T02:03:14.977Z,508.00
2023-03-06T02:04:15.006Z,509.00
2023-03-06T02:05:15.064Z,509.00
2023-03-06T02:08:15.149Z,507.00
2023-03-06T02:57:16.743Z,516.00
2023-03-06T03:04:16.915Z,525.00
2023-03-06T03:05:16.908Z,524.00
2023-03-06T03:06:16.937Z,522.00
2023-03-06T03:07:16.998Z,523.00
2023-03-06T03:08:17.030Z,519.00
2023-03-06T03:27:17.857Z,518.00
2023-03-06T03:28:17.926Z,521.00
2023-03-06T03:29:17.967Z,517.00
2023-03-06T03:30:18.048Z,519.00
2023-03-06T03:31:18.122Z,525.00
2023-03-06T03:32:18.206Z,519.00
2023-03-06T03:33:18.193Z,520.00
2023-03-06T03:34:18.271Z,522.00
2023-03-06T03:35:18.313Z,521.00
2023-03-06T03:36:18.322Z,525.00
2023-03-06T03:37:18.350Z,521.00
2023-03-06T03:38:18.429Z,521.00
2023-03-06T03:39:18.438Z,522.00
2023-03-06T03:40:18.456Z,526.00
2023-03-06T03:41:18.528Z,518.00
2023-03-06T04:24:20.217Z,517.00
2023-03-06T04:25:20.249Z,518.00
2023-03-06T04:26:20.285Z,514.00
2023-03-06T04:27:20.337Z,515.00
2023-03-06T04:28:20.313Z,518.00
2023-03-06T04:29:20.366Z,515.00
2023-03-06T04:30:20.436Z,513.00
2023-03-06T04:31:20.534Z,512.00
2023-03-06T04:32:21.649Z,514.00
2023-03-06T04:33:20.561Z,513.00
2023-03-06T04:34:20.608Z,513.00
2023-03-06T04:35:20.707Z,511.00
2023-03-06T04:36:20.734Z,517.00
2023-03-06T04:37:20.771Z,509.00
2023-03-06T04:38:20.816Z,510.00
2023-03-06T04:39:20.862Z,513.00
2023-03-06T04:40:20.902Z,509.00
2023-03-06T04:41:20.915Z,510.00
2023-03-06T04:42:20.952Z,512.00
2023-03-06T04:43:20.982Z,509.00
2023-03-06T04:44:20.984Z,509.00
2023-03-06T04:45:21.150Z,510.00
2023-03-06T04:46:21.046Z,513.00
2023-03-06T04:47:21.083Z,510.00
2023-03-06T04:48:21.102Z,509.00
2023-03-06T04:49:21.116Z,507.00
2023-03-06T04:50:21.128Z,506.00
2023-03-06T04:51:21.223Z,511.00
2023-03-06T04:52:21.194Z,507.00
2023-03-06T04:53:21.233Z,510.00
2023-03-06T04:54:21.274Z,506.00
2023-03-06T05:04:21.613Z,502.00
2023-03-06T05:05:21.646Z,511.00
2023-03-06T05:06:21.691Z,501.00
2023-03-06T05:07:21.736Z,510.00
2023-03-06T05:08:21.723Z,506.00
2023-03-06T05:09:21.785Z,506.00
2023-03-06T05:16:22.062Z,502.00
2023-03-06T05:17:22.079Z,506.00
2023-03-06T05:18:22.142Z,501.00
2023-03-06T05:19:22.170Z,506.00
2023-03-06T05:20:22.232Z,509.00
2023-03-06T05:21:22.294Z,504.00
2023-03-06T05:22:22.346Z,506.00
2023-03-06T05:23:22.400Z,505.00
2023-03-06T05:24:22.440Z,503.00
2023-03-06T06:45:50.740Z,502.00
2023-03-06T09:22:47.945Z,678.00
2023-03-06T09:23:47.851Z,676.00
2023-03-06T09:24:47.868Z,658.00
2023-03-06T09:25:47.913Z,668.00
2023-03-06T09:26:49.408Z,674.00
2023-03-06T09:27:51.442Z,678.00
2023-03-06T09:28:48.923Z,679.00
2023-03-06T09:29:48.019Z,679.00
2023-03-06T09:30:47.994Z,645.00
2023-03-06T09:31:47.905Z,679.00
2023-03-06T09:32:47.964Z,654.00
2023-03-06T09:33:47.866Z,655.00
2023-03-06T09:34:47.896Z,655.00
2023-03-06T09:35:47.959Z,691.00
2023-03-06T09:36:56.872Z,676.00
2023-03-06T09:37:49.218Z,678.00
2023-03-06T09:38:48.143Z,682.00
2023-03-06T09:39:47.880Z,685.00
2023-03-06T09:40:47.930Z,680.00
2023-03-06T09:41:47.901Z,705.00
2023-03-06T09:58:48.813Z,761.00
2023-03-06T09:59:48.884Z,789.00
2023-03-06T10:00:48.940Z,810.00
2023-03-06T10:01:48.933Z,804.00
2023-03-06T10:02:49.131Z,836.00
2023-03-06T10:03:49.093Z,875.00
2023-03-06T10:04:49.137Z,897.00
2023-03-06T10:05:49.117Z,907.00
2023-03-06T10:06:49.192Z,934.00
2023-03-06T10:07:49.108Z,960.00
2023-03-06T10:08:49.138Z,991.00
2023-03-06T10:09:49.355Z,1008.00
2023-03-06T10:10:49.205Z,1044.00
2023-03-06T10:11:49.330Z,1080.00
2023-03-06T10:12:49.304Z,1105.00
2023-03-06T10:13:49.459Z,1126.00
2023-03-06T10:14:49.489Z,1165.00
2023-03-06T10:15:49.426Z,1185.00
2023-03-06T10:16:49.482Z,1199.00
2023-03-06T10:17:49.503Z,1235.00
2023-03-06T10:18:50.555Z,1257.00
2023-03-06T10:19:49.574Z,1273.00
2023-03-06T10:20:49.592Z,1297.00
2023-03-06T10:21:49.586Z,1312.00
2023-03-06T10:23:00.740Z,1347.00
2023-03-06T10:23:50.968Z,1349.00
2023-03-06T10:24:49.576Z,1356.00
2023-03-06T10:25:49.562Z,1374.00
2023-03-06T10:26:49.680Z,1402.00
2023-03-06T10:27:49.691Z,1446.00
2023-03-06T10:28:49.579Z,1468.00
2023-03-06T10:30:01.658Z,1481.00
2023-03-06T10:30:50.568Z,1483.00
2023-03-06T10:31:49.773Z,1491.00
2023-03-06T10:32:49.752Z,1504.00
2023-03-06T10:33:49.535Z,1524.00
2023-03-06T10:34:49.508Z,1557.00
2023-03-06T10:35:49.584Z,1553.00
2023-03-06T10:36:49.540Z,1555.00
2023-03-06T10:37:49.508Z,1547.00
2023-03-06T10:38:49.988Z,1557.00
2023-03-06T10:39:49.496Z,1572.00
2023-03-06T10:40:49.519Z,1561.00
2023-03-06T10:41:49.566Z,1557.00
2023-03-06T10:42:56.194Z,1556.00
2023-03-06T10:43:50.631Z,1558.00
2023-03-06T10:44:49.554Z,1562.00
2023-03-06T10:45:49.852Z,1569.00
2023-03-06T10:46:49.573Z,1585.00
2023-03-06T10:47:49.559Z,1586.00
2023-03-06T10:48:49.995Z,1833.00
2023-03-06T10:49:49.591Z,2060.00
2023-03-06T10:50:49.499Z,2199.00
2023-03-06T10:51:49.532Z,2180.00
2023-03-06T10:52:49.587Z,2174.00
2023-03-06T10:53:49.675Z,2195.00
2023-03-06T10:54:49.704Z,2223.00
2023-03-06T10:55:49.782Z,2261.00
2023-03-06T10:56:49.814Z,2256.00
2023-03-06T10:57:49.881Z,2266.00
2023-03-06T10:58:49.926Z,2299.00
2023-03-06T10:59:50.010Z,2300.00
2023-03-06T11:00:50.039Z,2315.00
2023-03-06T11:01:50.096Z,2325.00
2023-03-06T11:02:50.139Z,2327.00
2023-03-06T11:03:50.231Z,2353.00
2023-03-06T11:04:50.307Z,2343.00
2023-03-06T11:05:50.306Z,2355.00
2023-03-06T11:06:50.384Z,2376.00
2023-03-06T11:07:50.425Z,2389.00
2023-03-06T11:08:50.497Z,2388.00
2023-03-06T11:09:50.537Z,2388.00
2023-03-06T11:10:50.577Z,2397.00
2023-03-06T11:11:51.520Z,2395.00
2023-03-06T11:12:50.657Z,2398.00
2023-03-06T11:13:50.701Z,2416.00
2023-03-06T11:14:50.688Z,2406.00
2023-03-06T11:15:50.799Z,2417.00
2023-03-06T11:16:50.699Z,2395.00
2023-03-06T11:17:50.688Z,2400.00
2023-03-06T11:19:51.024Z,2393.00
2023-03-06T11:20:52.846Z,2407.00
2023-03-06T11:21:50.699Z,2414.00
2023-03-06T11:22:50.730Z,2414.00
2023-03-06T11:23:50.738Z,2417.00
2023-03-06T11:24:50.756Z,2434.00
2023-03-06T11:25:50.780Z,2437.00
2023-03-06T11:26:51.282Z,2439.00
2023-03-06T11:27:50.794Z,2433.00
2023-03-06T11:28:50.853Z,2436.00
2023-03-06T11:29:50.892Z,2430.00
2023-03-06T11:30:50.891Z,2422.00
2023-03-06T11:31:50.923Z,2420.00
2023-03-06T11:32:50.981Z,2410.00
2023-03-06T11:33:51.034Z,2383.00
2023-03-06T11:34:51.008Z,2376.00
2023-03-06T11:35:51.079Z,2371.00
2023-03-06T11:36:51.117Z,2313.00
2023-03-06T11:37:51.131Z,2266.00
2023-03-06T11:38:51.122Z,2068.00
2023-03-06T11:39:51.493Z,1576.00
2023-03-06T11:40:51.141Z,1379.00
2023-03-06T11:41:51.179Z,1492.00
2023-03-06T11:42:51.175Z,1482.00
2023-03-06T11:43:51.222Z,1424.00
2023-03-06T11:44:51.530Z,1523.00
2023-03-06T11:45:51.262Z,1324.00
2023-03-06T11:46:51.332Z,1275.00
2023-03-06T11:47:51.350Z,1273.00
2023-03-06T11:48:51.388Z,1165.00
2023-03-06T11:49:51.547Z,1304.00
2023-03-06T11:50:51.484Z,1160.00
2023-03-06T11:51:51.499Z,1230.00
2023-03-06T11:52:51.548Z,1061.00
2023-03-06T11:53:51.587Z,504.00
2023-03-06T11:54:52.042Z,461.00
2023-03-06T11:55:51.631Z,569.00
2023-03-06T11:56:51.650Z,657.00
2023-03-06T11:57:51.669Z,832.00
2023-03-06T11:58:51.653Z,526.00
2023-03-06T11:59:51.694Z,417.00
2023-03-06T12:00:51.744Z,400.00
2023-03-06T12:01:51.784Z,400.00
2023-03-06T12:02:51.762Z,550.00
2023-03-06T12:03:51.748Z,646.00
2023-03-06T12:04:52.021Z,412.00
2023-03-06T12:05:51.733Z,400.00
2023-03-06T12:06:51.763Z,503.00
2023-03-06T12:07:51.799Z,521.00
2023-03-06T12:08:51.774Z,658.00
2023-03-06T12:09:51.811Z,568.00
2023-03-06T12:10:52.309Z,400.00
2023-03-06T12:11:51.801Z,504.00
2023-03-06T12:12:51.814Z,515.00
2023-03-06T12:14:52.008Z,400.00
2023-03-06T12:15:51.821Z,544.00
2023-03-06T12:16:51.866Z,754.00
2023-03-06T12:17:51.838Z,980.00
2023-03-06T12:18:51.861Z,545.00
2023-03-06T12:19:52.022Z,483.00
2023-03-06T12:20:51.869Z,513.00
2023-03-06T12:21:52.407Z,585.00
2023-03-06T12:22:57.749Z,892.00
2023-03-06T12:24:52.064Z,914.00
2023-03-06T12:25:51.961Z,586.00
2023-03-06T12:26:51.948Z,603.00
2023-03-06T12:27:51.974Z,730.00
2023-03-06T12:28:51.950Z,897.00
2023-03-06T12:29:51.947Z,1159.00
2023-03-06T12:30:52.054Z,1390.00
2023-03-06T12:31:51.902Z,1744.00
2023-03-06T12:32:52.013Z,1923.00
2023-03-06T12:33:51.912Z,2039.00
2023-03-06T12:34:51.928Z,2224.00
2023-03-06T12:36:51.964Z,2401.00
2023-03-06T12:37:51.962Z,2462.00
2023-03-06T12:38:51.977Z,2505.00
2023-03-06T12:39:51.957Z,2548.00
2023-03-06T12:40:51.998Z,2587.00
2023-03-06T12:41:51.994Z,2615.00
2023-03-06T12:42:52.517Z,2627.00
2023-03-06T12:43:52.052Z,2657.00
2023-03-06T12:44:52.025Z,2689.00
2023-03-06T12:45:52.160Z,2699.00
2023-03-06T12:46:52.023Z,2721.00
2023-03-06T12:47:52.053Z,2721.00
2023-03-06T12:48:52.048Z,2733.00
2023-03-06T12:49:52.044Z,2752.00
2023-03-06T12:50:52.052Z,2735.00
2023-03-06T12:51:52.077Z,2753.00
2023-03-06T12:52:52.121Z,2773.00
2023-03-06T12:53:52.057Z,2762.00
2023-03-06T12:54:52.080Z,2787.00
2023-03-06T12:55:52.100Z,2783.00
2023-03-06T12:56:52.062Z,2779.00
2023-03-06T12:57:52.052Z,2778.00
2023-03-06T12:58:52.053Z,2802.00
2023-03-06T12:59:52.163Z,2799.00
2023-03-06T13:00:55.294Z,2811.00
2023-03-06T13:01:53.139Z,2812.00
2023-03-06T13:02:52.118Z,2815.00
2023-03-06T13:03:52.074Z,2815.00
2023-03-06T13:04:52.099Z,2815.00
2023-03-06T13:05:52.181Z,2812.00
2023-03-06T13:06:52.101Z,2819.00
2023-03-06T13:07:52.084Z,2825.00
2023-03-06T13:08:52.116Z,2804.00
2023-03-06T13:09:52.124Z,2807.00
2023-03-06T13:10:52.128Z,2816.00
2023-03-06T13:11:52.094Z,2807.00
2023-03-06T13:12:52.142Z,2808.00
2023-03-06T13:13:52.155Z,2813.00
2023-03-06T13:14:54.675Z,2807.00
2023-03-06T13:15:52.195Z,2804.00
2023-03-06T13:16:52.214Z,2805.00
2023-03-06T13:17:52.179Z,2787.00
2023-03-06T13:18:52.197Z,2803.00
2023-03-06T13:19:52.166Z,2803.00
2023-03-06T13:20:52.179Z,2801.00
2023-03-06T13:21:52.162Z,2793.00
2023-03-06T13:22:52.164Z,2801.00
2023-03-06T13:23:52.169Z,2797.00
2023-03-06T13:24:54.929Z,2795.00
2023-03-06T13:25:52.168Z,2795.00
2023-03-06T13:26:52.141Z,2795.00
2023-03-06T13:27:52.139Z,2796.00
2023-03-06T13:28:52.125Z,2793.00
2023-03-06T13:29:52.082Z,2796.00
2023-03-06T13:30:53.290Z,2788.00
2023-03-06T13:31:52.068Z,2794.00
2023-03-06T13:32:52.074Z,2786.00
2023-03-06T13:33:52.101Z,2783.00
2023-03-06T13:34:52.061Z,2776.00
2023-03-06T13:35:52.107Z,2768.00
2023-03-06T13:36:52.023Z,2773.00
2023-03-06T13:37:52.086Z,2764.00
2023-03-06T13:38:52.043Z,2765.00
2023-03-06T13:39:52.052Z,2754.00
2023-03-06T13:40:52.041Z,2755.00
2023-03-06T13:41:52.002Z,2744.00
2023-03-06T13:42:52.007Z,2726.00
2023-03-06T13:43:52.010Z,2734.00
2023-03-06T13:44:51.969Z,2728.00
2023-03-06T13:45:52.021Z,2726.00
2023-03-06T13:46:51.983Z,2720.00
2023-03-06T13:48:30.272Z,2715.00
2023-03-06T13:48:52.968Z,2717.00
2023-03-06T13:49:51.970Z,2717.00
2023-03-06T13:50:51.962Z,2702.00
2023-03-06T13:51:51.965Z,2707.00
2023-03-06T13:52:53.690Z,2707.00
2023-03-06T13:53:51.960Z,2722.00
2023-03-06T13:54:51.923Z,2712.00
2023-03-06T13:55:51.938Z,2718.00
2023-03-06T13:56:51.888Z,2698.00
2023-03-06T13:57:51.921Z,2685.00
2023-03-06T13:58:51.897Z,2686.00
2023-03-06T13:59:57.005Z,2688.00
2023-03-06T14:00:52.871Z,2689.00
2023-03-06T14:01:51.974Z,2690.00
2023-03-06T14:02:51.911Z,2690.00
2023-03-06T14:03:51.852Z,2670.00
2023-03-06T14:04:51.880Z,2678.00
2023-03-06T14:05:51.840Z,2642.00
2023-03-06T14:06:51.833Z,2597.00
2023-03-06T14:07:51.849Z,2596.00
2023-03-06T14:08:51.819Z,2578.00
2023-03-06T14:09:51.816Z,2578.00
2023-03-06T14:10:51.815Z,2583.00
2023-03-06T14:11:51.803Z,2594.00
2023-03-06T14:12:51.815Z,2604.00
2023-03-06T14:13:51.847Z,2619.00
2023-03-06T14:14:51.885Z,2645.00
2023-03-06T14:15:51.986Z,2663.00
2023-03-06T14:16:52.042Z,2682.00
2023-03-06T14:17:52.048Z,2724.00
2023-03-06T14:18:52.099Z,2750.00
2023-03-06T14:19:52.132Z,2767.00
2023-03-06T14:20:52.185Z,2797.00
2023-03-06T14:21:52.259Z,2795.00
2023-03-06T14:22:52.248Z,2817.00
2023-03-06T14:23:52.231Z,2843.00
2023-03-06T14:24:52.229Z,2884.00
2023-03-06T14:25:52.233Z,2891.00
2023-03-06T14:26:52.238Z,2928.00
2023-03-06T14:27:53.560Z,2955.00
2023-03-06T14:28:52.392Z,2965.00
2023-03-06T14:29:52.389Z,2992.00
2023-03-06T14:30:52.442Z,3009.00
2023-03-06T14:31:52.374Z,3028.00
2023-03-06T14:32:52.352Z,3035.00
2023-03-06T14:33:52.360Z,3040.00
2023-03-06T14:34:52.378Z,3023.00
2023-03-06T14:35:53.245Z,3052.00
2023-03-06T14:36:52.364Z,3060.00
2023-03-06T14:37:52.364Z,3061.00
2023-03-06T14:38:52.371Z,3067.00
2023-03-06T14:39:52.357Z,3065.00
2023-03-06T14:40:52.384Z,3079.00
2023-03-06T14:41:52.379Z,3075.00
2023-03-06T14:42:52.394Z,3080.00
2023-03-06T14:43:52.415Z,3094.00
2023-03-06T14:44:52.402Z,3103.00
2023-03-06T14:45:52.385Z,3091.00
2023-03-06T14:46:52.446Z,3100.00
2023-03-06T14:47:52.419Z,3077.00
2023-03-06T14:48:52.415Z,3081.00
2023-03-06T14:49:52.399Z,3070.00
2023-03-06T14:50:52.455Z,3082.00
2023-03-06T14:51:52.416Z,3059.00
2023-03-06T14:52:52.423Z,3069.00
2023-03-06T14:53:52.382Z,3061.00
2023-03-06T14:54:52.411Z,3070.00
2023-03-06T14:55:52.440Z,3048.00
2023-03-06T14:56:52.431Z,3038.00
2023-03-06T14:57:52.448Z,3046.00
2023-03-06T14:58:52.458Z,3018.00
2023-03-06T14:59:52.450Z,3048.00
2023-03-06T15:00:52.454Z,3031.00
2023-03-06T15:01:52.461Z,3014.00
2023-03-06T15:02:52.493Z,3024.00
2023-03-06T15:03:52.429Z,3027.00
2023-03-06T15:04:52.464Z,3009.00
2023-03-06T15:05:52.464Z,3004.00
2023-03-06T15:06:52.466Z,2995.00
2023-03-06T15:07:52.456Z,2981.00
2023-03-06T15:08:52.461Z,2993.00
2023-03-06T15:09:52.440Z,2982.00
2023-03-06T15:10:52.469Z,2969.00
2023-03-06T15:11:52.500Z,2959.00
2023-03-06T15:12:52.504Z,2956.00
2023-03-06T15:13:52.519Z,2954.00
2023-03-06T15:14:52.562Z,2957.00
2023-03-06T15:15:52.630Z,2933.00
2023-03-06T15:16:52.626Z,2913.00
2023-03-06T15:17:52.692Z,2929.00
2023-03-06T15:18:52.742Z,2909.00
2023-03-06T15:19:52.817Z,2905.00
2023-03-06T15:20:52.839Z,2881.00
2023-03-06T15:21:52.861Z,2891.00
2023-03-06T15:22:52.932Z,2889.00
2023-03-06T15:23:52.936Z,2887.00
2023-03-06T15:24:52.987Z,2893.00
2023-03-06T15:25:52.943Z,2893.00
2023-03-06T15:26:52.967Z,2866.00
2023-03-06T15:27:52.977Z,2872.00
2023-03-06T15:28:59.830Z,2859.00
2023-03-06T15:29:53.970Z,2860.00
2023-03-06T15:30:53.014Z,2860.00
2023-03-06T15:31:53.049Z,2844.00
2023-03-06T15:32:52.958Z,2829.00
2023-03-06T15:33:52.949Z,2815.00
2023-03-06T15:34:53.007Z,2824.00
2023-03-06T15:35:53.027Z,2817.00
2023-03-06T15:36:52.879Z,2816.00
2023-03-06T15:37:52.883Z,2811.00
2023-03-06T15:38:52.881Z,2792.00
2023-03-06T15:39:52.888Z,2800.00
2023-03-06T15:40:52.909Z,2785.00
2023-03-06T15:41:52.965Z,2789.00
2023-03-06T15:42:52.965Z,2776.00
2023-03-06T15:43:52.988Z,2771.00
2023-03-06T15:44:53.150Z,2783.00
2023-03-06T15:45:53.164Z,2783.00
2023-03-06T15:46:59.268Z,2751.00
2023-03-06T15:47:54.179Z,2752.00
2023-03-06T15:48:53.151Z,2752.00
2023-03-06T15:49:53.357Z,2754.00
2023-03-06T15:50:53.205Z,2755.00
2023-03-06T15:51:53.141Z,2752.00
2023-03-06T15:52:53.151Z,2738.00
2023-03-06T15:53:55.094Z,2737.00
2023-03-06T15:54:54.127Z,2739.00
2023-03-06T15:55:53.113Z,2728.00
2023-03-06T15:56:53.092Z,2724.00
2023-03-06T15:57:53.095Z,2723.00
2023-03-06T15:58:53.165Z,2713.00
2023-03-06T15:59:53.104Z,2725.00
2023-03-06T16:00:53.124Z,2692.00
2023-03-06T16:01:53.072Z,2686.00
2023-03-06T16:02:53.064Z,2692.00
2023-03-06T16:03:53.099Z,2682.00
2023-03-06T16:04:53.209Z,2676.00
2023-03-06T16:05:53.213Z,2676.00
2023-03-06T16:06:53.244Z,2675.00
2023-03-06T16:07:53.286Z,2676.00
2023-03-06T16:08:53.396Z,2665.00
2023-03-06T16:09:53.423Z,2667.00
2023-03-06T16:10:53.480Z,2668.00
2023-03-06T16:11:53.526Z,2663.00
2023-03-06T16:12:53.534Z,2654.00
2023-03-06T16:13:53.553Z,2649.00
2023-03-06T16:14:53.587Z,2640.00
2023-03-06T16:15:53.583Z,2645.00
2023-03-06T16:16:53.664Z,2639.00
2023-03-06T16:17:53.620Z,2636.00
2023-03-06T16:18:53.630Z,2637.00
2023-03-06T16:19:53.657Z,2635.00
2023-03-06T16:20:53.637Z,2633.00
2023-03-06T16:21:53.664Z,2626.00
2023-03-06T16:22:53.687Z,2631.00
2023-03-06T16:23:53.681Z,2627.00
2023-03-06T16:24:53.710Z,2625.00
2023-03-06T16:25:53.711Z,2625.00
2023-03-06T16:26:53.729Z,2629.00
2023-03-06T16:27:53.775Z,2634.00
2023-03-06T16:28:53.792Z,2619.00
2023-03-06T16:29:53.775Z,2627.00
2023-03-06T16:30:53.868Z,2621.00
2023-03-06T16:31:53.894Z,2618.00
2023-03-06T16:32:53.991Z,2612.00
2023-03-06T16:33:54.028Z,2594.00
2023-03-06T16:34:54.078Z,2593.00
2023-03-06T16:35:54.179Z,2596.00
2023-03-06T16:36:54.224Z,2583.00
2023-03-06T16:37:54.277Z,2589.00
2023-03-06T16:38:54.357Z,2584.00
2023-03-06T16:39:54.412Z,2589.00
2023-03-06T16:40:54.467Z,2568.00
2023-03-06T16:41:54.522Z,2568.00
2023-03-06T16:42:55.275Z,2567.00
2023-03-06T16:43:54.658Z,2564.00
2023-03-06T16:44:54.724Z,2565.00
2023-03-06T16:45:54.950Z,2562.00
2023-03-06T16:46:54.838Z,2555.00
2023-03-06T16:47:54.908Z,2558.00
2023-03-06T16:48:54.996Z,2565.00
2023-03-06T16:49:55.078Z,2548.00
2023-03-06T16:50:55.117Z,2546.00
2023-03-06T16:51:55.197Z,2550.00
2023-03-06T16:52:55.208Z,2554.00
2023-03-06T16:53:55.299Z,2536.00
2023-03-06T16:54:55.370Z,2525.00
2023-03-06T16:55:55.424Z,2537.00
2023-03-06T16:56:55.475Z,2534.00
2023-03-06T16:57:55.553Z,2525.00
2023-03-06T16:58:55.543Z,2502.00
2023-03-06T16:59:55.611Z,2507.00
2023-03-06T17:00:55.689Z,2498.00
2023-03-06T17:01:55.766Z,2492.00
2023-03-06T17:02:55.813Z,2502.00
2023-03-06T17:03:55.897Z,2497.00
2023-03-06T17:04:55.937Z,2505.00
2023-03-06T17:05:56.018Z,2489.00
2023-03-06T17:06:56.096Z,2481.00
2023-03-06T17:07:56.113Z,2487.00
2023-03-06T17:08:56.181Z,2501.00
2023-03-06T17:09:56.237Z,2476.00
2023-03-06T17:10:56.285Z,2470.00
2023-03-06T17:11:56.349Z,2477.00
2023-03-06T17:12:56.402Z,2473.00
2023-03-06T17:13:56.429Z,2476.00
2023-03-06T17:14:56.509Z,2471.00
2023-03-06T17:15:56.657Z,2468.00
2023-03-06T17:16:57.250Z,2478.00
2023-03-06T17:17:56.633Z,2473.00
2023-03-06T17:18:56.646Z,2456.00
2023-03-06T17:19:56.748Z,2464.00
2023-03-06T17:20:56.774Z,2447.00
2023-03-06T17:21:56.826Z,2445.00
2023-03-06T17:22:56.855Z,2434.00
2023-03-06T17:23:56.941Z,2440.00
2023-03-06T17:24:56.995Z,2443.00
2023-03-06T17:25:56.977Z,2428.00
2023-03-06T17:26:57.015Z,2433.00
2023-03-06T17:27:57.041Z,2429.00
2023-03-06T17:28:57.087Z,2411.00
2023-03-06T17:29:57.090Z,2418.00
2023-03-06T17:30:57.180Z,2426.00
2023-03-06T17:31:57.140Z,2426.00
2023-03-06T17:32:57.143Z,2412.00
2023-03-06T17:33:57.152Z,2404.00
2023-03-06T17:34:57.175Z,2415.00
2023-03-06T17:35:57.207Z,2389.00
2023-03-06T17:36:57.203Z,2390.00
2023-03-06T17:37:57.201Z,2402.00
2023-03-06T17:38:57.215Z,2389.00
2023-03-06T17:39:57.236Z,2400.00
2023-03-06T17:40:57.263Z,2393.00
2023-03-06T17:41:57.264Z,2384.00
2023-03-06T17:42:57.276Z,2410.00
2023-03-06T17:43:57.267Z,2386.00
2023-03-06T17:44:57.282Z,2387.00
2023-03-06T17:45:57.300Z,2375.00
2023-03-06T17:46:57.341Z,2376.00
2023-03-06T17:47:57.357Z,2376.00
2023-03-06T17:48:57.359Z,2378.00
2023-03-06T17:49:57.380Z,2379.00
2023-03-06T17:50:57.399Z,2367.00
2023-03-06T17:51:57.419Z,2352.00
2023-03-06T17:52:57.437Z,2350.00
2023-03-06T17:53:57.452Z,2361.00
2023-03-06T17:54:57.475Z,2365.00
2023-03-06T17:55:57.490Z,2355.00
2023-03-06T17:56:57.473Z,2349.00
2023-03-06T17:57:57.480Z,2347.00
2023-03-06T17:58:57.507Z,2326.00
2023-03-06T17:59:57.476Z,2332.00
2023-03-06T18:00:57.475Z,2328.00
2023-03-06T18:01:57.496Z,2333.00
2023-03-06T18:02:57.454Z,2334.00
2023-03-06T18:03:57.480Z,2331.00
2023-03-06T18:04:57.534Z,2335.00
2023-03-06T18:05:57.472Z,2331.00
2023-03-06T18:06:57.514Z,2318.00
2023-03-06T18:07:57.577Z,2310.00
2023-03-06T18:08:57.558Z,2317.00
2023-03-06T18:09:57.567Z,2320.00
2023-03-06T18:10:57.571Z,2297.00
2023-03-06T18:11:57.594Z,2310.00
2023-03-06T18:13:57.590Z,2307.00
2023-03-06T18:14:57.616Z,2308.00
2023-03-06T18:15:57.640Z,2295.00
2023-03-06T18:16:57.602Z,2298.00
2023-03-06T18:17:57.625Z,2270.00
2023-03-06T18:19:57.699Z,2276.00
2023-03-06T18:20:57.685Z,2282.00
2023-03-06T18:21:57.685Z,2278.00
2023-03-06T18:22:57.670Z,2276.00
2023-03-06T18:23:57.713Z,2279.00
2023-03-06T18:24:57.707Z,2258.00
2023-03-06T18:25:57.750Z,2269.00
2023-03-06T18:26:57.796Z,2276.00
2023-03-06T18:27:57.767Z,2269.00
2023-03-06T18:28:57.799Z,2260.00
2023-03-06T18:29:57.834Z,2263.00
2023-03-06T18:30:57.823Z,2263.00
2023-03-06T18:31:57.847Z,2252.00
2023-03-06T18:32:57.884Z,2239.00
2023-03-06T18:33:57.937Z,2259.00
2023-03-06T18:34:57.880Z,2247.00
2023-03-06T18:35:57.918Z,2245.00
2023-03-06T18:36:57.906Z,2250.00
2023-03-06T18:37:57.966Z,2238.00
2023-03-06T18:38:57.933Z,2243.00
2023-03-06T18:39:58.061Z,2250.00
2023-03-06T18:40:57.938Z,2232.00
2023-03-06T18:41:57.948Z,2235.00
2023-03-06T18:42:57.978Z,2213.00
2023-03-06T18:43:58.007Z,2229.00
2023-03-06T18:44:58.012Z,2224.00
2023-03-06T18:45:58.098Z,2225.00
2023-03-06T18:46:58.063Z,2213.00
2023-03-06T18:48:58.105Z,2220.00
2023-03-06T18:49:58.124Z,2216.00
2023-03-06T18:50:58.154Z,2217.00
2023-03-06T18:51:58.125Z,2211.00
2023-03-06T18:52:58.088Z,2193.00
2023-03-06T18:53:58.182Z,2198.00
2023-03-06T18:55:58.119Z,2200.00
2023-03-06T18:56:58.089Z,2181.00
2023-03-06T18:57:58.091Z,2190.00
2023-03-06T18:58:58.087Z,2187.00
2023-03-06T18:59:58.076Z,2176.00
2023-03-06T19:00:59.475Z,2177.00
2023-03-06T19:01:58.075Z,2178.00
2023-03-06T19:03:58.177Z,2183.00
2023-03-06T19:04:58.150Z,2169.00
2023-03-06T19:05:58.124Z,2168.00
2023-03-06T19:06:58.130Z,2172.00
2023-03-06T19:07:58.174Z,2180.00
2023-03-06T19:08:58.236Z,2171.00
2023-03-06T19:09:58.224Z,2151.00
2023-03-06T19:10:58.244Z,2162.00
2023-03-06T19:11:58.244Z,2155.00
2023-03-06T19:12:58.212Z,2153.00
2023-03-06T19:13:58.235Z,2166.00
2023-03-06T19:14:58.250Z,2167.00
2023-03-06T19:15:58.256Z,2166.00
2023-03-06T19:16:58.219Z,2156.00
2023-03-06T19:17:58.253Z,2165.00
2023-03-06T19:18:58.206Z,2143.00
2023-03-06T19:19:58.227Z,2138.00
2023-03-06T19:20:58.277Z,2146.00
2023-03-06T19:21:58.254Z,2129.00
2023-03-06T19:22:58.268Z,2120.00
2023-03-06T19:23:58.253Z,2130.00
2023-03-06T19:24:58.271Z,2139.00
2023-03-06T19:25:58.284Z,2136.00
2023-03-06T19:26:58.303Z,2131.00
2023-03-06T19:27:58.341Z,2119.00
2023-03-06T19:28:58.309Z,2124.00
2023-03-06T19:29:58.376Z,2107.00
2023-03-06T19:30:58.370Z,2122.00
2023-03-06T19:31:58.411Z,2120.00
2023-03-06T19:32:58.352Z,2103.00
2023-03-06T19:33:58.359Z,2099.00
2023-03-06T19:34:58.356Z,2099.00
2023-03-06T19:35:58.396Z,2092.00
2023-03-06T19:36:58.373Z,2101.00
2023-03-06T19:37:58.320Z,2101.00
2023-03-06T19:38:58.332Z,2060.00
2023-03-06T19:39:58.350Z,2065.00
2023-03-06T19:40:58.340Z,2073.00
2023-03-06T19:41:58.324Z,2076.00
2023-03-06T19:42:58.325Z,2073.00
2023-03-06T19:43:58.338Z,2069.00